createdAt,value
2018-12-22T00:01:22.721Z,3.00
2018-12-22T00:04:26.789Z,3.20
2018-12-22T00:07:30.725Z,3.10
2018-12-22T00:10:34.824Z,2.93
2018-12-22T00:13:38.756Z,3.20
2018-12-22T00:16:42.896Z,3.00
2018-12-22T00:19:46.842Z,3.47
2018-12-22T00:22:50.896Z,3.80
2018-12-22T00:25:54.828Z,4.57
2018-12-22T00:28:58.870Z,4.63
2018-12-22T00:32:02.793Z,4.63
2018-12-22T00:35:06.928Z,4.60
2018-12-22T00:38:10.877Z,4.90
2018-12-22T00:41:14.959Z,5.30
2018-12-22T00:44:18.892Z,5.07
2018-12-22T00:47:23.088Z,6.00
2018-12-22T00:50:27.140Z,5.47
2018-12-22T00:53:31.220Z,6.07
2018-12-22T00:56:35.157Z,5.53
2018-12-22T00:59:39.245Z,5.77
2018-12-22T01:02:43.245Z,6.53
2018-12-22T01:05:47.385Z,6.90
2018-12-22T01:08:51.355Z,7.67
2018-12-22T01:11:55.408Z,6.63
2018-12-22T01:14:59.354Z,7.53
2018-12-22T01:18:03.417Z,6.30
2018-12-22T01:21:07.356Z,8.30
2018-12-22T01:24:11.451Z,8.63
2018-12-22T01:27:15.412Z,7.40
2018-12-22T01:30:19.481Z,8.03
2018-12-22T01:33:23.420Z,7.50
2018-12-22T01:36:27.485Z,7.60
2018-12-22T01:39:31.471Z,8.43
2018-12-22T01:42:35.640Z,7.40
2018-12-22T01:45:39.592Z,8.37
2018-12-22T01:48:43.668Z,7.00
2018-12-22T01:51:47.604Z,5.73
2018-12-22T01:54:51.792Z,5.07
2018-12-22T01:57:55.744Z,5.20
2018-12-22T02:00:59.824Z,6.60
2018-12-22T02:04:03.761Z,6.17
2018-12-22T02:07:07.814Z,6.20
2018-12-22T02:10:11.744Z,5.30
2018-12-22T02:13:15.888Z,4.77
2018-12-22T02:16:19.811Z,5.53
2018-12-22T02:19:24.009Z,4.73
2018-12-22T02:22:27.934Z,4.93
2018-12-22T02:25:32.029Z,5.20
2018-12-22T02:28:35.963Z,5.30
2018-12-22T02:31:40.158Z,5.53
2018-12-22T02:34:44.109Z,5.20
2018-12-22T02:37:48.155Z,5.30
2018-12-22T02:40:52.094Z,4.80
2018-12-22T02:43:56.108Z,4.63
2018-12-22T02:47:00.061Z,4.10
2018-12-22T02:50:04.650Z,4.43
2018-12-22T02:53:08.576Z,4.13
2018-12-22T02:56:12.988Z,4.20
2018-12-22T02:59:16.918Z,3.90
2018-12-22T03:02:21.010Z,4.30
2018-12-22T03:05:25.027Z,4.00
2018-12-22T03:08:29.245Z,3.90
2018-12-22T03:11:33.191Z,4.20
2018-12-22T03:14:37.276Z,4.00
2018-12-22T03:17:41.316Z,4.23
2018-12-22T03:20:45.397Z,3.57
2018-12-22T03:23:49.340Z,3.50
2018-12-22T03:26:53.532Z,3.97
2018-12-22T03:29:57.490Z,4.80
2018-12-22T03:33:01.554Z,4.27
2018-12-22T03:36:05.488Z,4.73
2018-12-22T03:39:09.565Z,4.43
2018-12-22T03:42:13.614Z,4.27
2018-12-22T03:45:17.817Z,4.57
2018-12-22T03:48:21.765Z,4.30
2018-12-22T03:51:25.836Z,4.67
2018-12-22T03:54:29.788Z,5.00
2018-12-22T03:57:33.860Z,4.40
2018-12-22T04:00:37.800Z,4.80
2018-12-22T04:03:41.889Z,3.97
2018-12-22T04:06:45.824Z,5.17
2018-12-22T04:09:49.913Z,4.53
2018-12-22T04:12:53.840Z,4.87
2018-12-22T04:15:57.941Z,4.93
2018-12-22T04:19:01.873Z,4.50
2018-12-22T04:22:05.969Z,4.67
2018-12-22T04:25:09.904Z,4.70
2018-12-22T04:28:13.994Z,4.33
2018-12-22T04:31:17.976Z,4.60
2018-12-22T04:34:22.022Z,4.73
2018-12-22T04:37:25.948Z,4.20
2018-12-22T04:40:30.986Z,3.63
2018-12-22T04:43:34.960Z,3.73
2018-12-22T04:46:39.103Z,4.33
2018-12-22T04:49:43.053Z,4.57
2018-12-22T04:52:47.332Z,4.20
2018-12-22T04:55:51.280Z,5.67
2018-12-22T04:58:55.358Z,4.83
2018-12-22T05:01:59.289Z,5.30
2018-12-22T05:05:03.320Z,5.27
2018-12-22T05:08:07.254Z,5.93
2018-12-22T05:11:11.310Z,6.80
2018-12-22T05:14:15.255Z,5.70
2018-12-22T05:17:19.333Z,6.77
2018-12-22T05:20:23.285Z,6.20
2018-12-22T05:23:27.327Z,6.20
2018-12-22T05:26:31.256Z,7.00
2018-12-22T05:29:35.392Z,6.43
2018-12-22T05:32:39.340Z,6.00
2018-12-22T05:35:43.352Z,7.83
2018-12-22T05:38:47.316Z,7.97
2018-12-22T05:41:51.439Z,7.57
2018-12-22T05:44:55.377Z,8.67
2018-12-22T05:47:59.669Z,7.70
2018-12-22T05:51:03.603Z,7.67
2018-12-22T05:54:07.759Z,6.70
2018-12-22T05:57:11.700Z,7.10
2018-12-22T06:00:15.830Z,7.17
2018-12-22T06:03:19.764Z,7.20
2018-12-22T06:06:23.853Z,7.27
2018-12-22T06:09:27.794Z,6.70
2018-12-22T06:12:31.813Z,7.43
2018-12-22T06:15:35.759Z,7.37
2018-12-22T06:18:39.804Z,7.13
2018-12-22T06:21:43.776Z,8.27
2018-12-22T06:24:47.938Z,7.67
2018-12-22T06:27:51.917Z,7.73
2018-12-22T06:30:55.973Z,6.37
2018-12-22T06:33:59.904Z,7.30
2018-12-22T06:37:03.987Z,8.03
2018-12-22T06:40:08.326Z,7.23
2018-12-22T06:43:12.427Z,7.30
2018-12-22T06:46:16.360Z,8.03
2018-12-22T06:49:20.464Z,8.83
2018-12-22T06:52:24.420Z,8.47
2018-12-22T06:55:28.480Z,9.47
2018-12-22T06:58:32.424Z,9.33
2018-12-22T07:01:36.505Z,8.57
2018-12-22T07:04:40.444Z,8.30
2018-12-22T07:07:44.629Z,8.63
2018-12-22T07:10:48.569Z,8.07
2018-12-22T07:13:52.613Z,8.90
2018-12-22T07:16:56.637Z,9.40
2018-12-22T07:20:00.785Z,9.40
2018-12-22T07:23:04.991Z,9.80
2018-12-22T07:26:09.017Z,10.07
2018-12-22T07:29:13.000Z,9.00
2018-12-22T07:32:17.257Z,9.70
2018-12-22T07:35:21.196Z,8.87
2018-12-22T07:38:25.276Z,10.10
2018-12-22T07:41:29.236Z,8.90
2018-12-22T07:44:33.280Z,8.83
2018-12-22T07:47:37.254Z,9.40
2018-12-22T07:50:41.268Z,8.93
2018-12-22T07:53:45.210Z,9.40
2018-12-22T07:56:49.357Z,10.47
2018-12-22T07:59:53.328Z,10.50
2018-12-22T08:02:57.384Z,11.10
2018-12-22T08:06:01.338Z,9.43
2018-12-22T08:09:06.642Z,10.17
2018-12-22T08:12:10.609Z,12.37
2018-12-22T08:15:14.765Z,11.87
2018-12-22T08:18:18.709Z,10.40
2018-12-22T08:21:22.793Z,10.47
2018-12-22T08:24:26.733Z,10.30
2018-12-22T08:27:30.820Z,11.40
2018-12-22T08:30:43.337Z,10.03
2018-12-22T08:33:40.818Z,12.53
2018-12-22T08:36:44.789Z,13.00
2018-12-22T08:39:48.920Z,14.63
2018-12-22T08:42:52.879Z,14.67
2018-12-22T08:45:56.952Z,13.87
2018-12-22T08:49:00.889Z,13.57
2018-12-22T08:52:04.981Z,16.37
2018-12-22T08:55:08.956Z,13.43
2018-12-22T08:58:13.109Z,17.83
2018-12-22T09:01:17.044Z,12.20
2018-12-22T09:04:21.129Z,13.10
2018-12-22T09:07:25.072Z,9.87
2018-12-22T09:10:29.156Z,11.97
2018-12-22T09:13:33.105Z,12.07
2018-12-22T09:16:37.121Z,11.07
2018-12-22T09:19:41.075Z,10.93
2018-12-22T09:22:45.110Z,12.03
2018-12-22T09:25:49.053Z,10.20
2018-12-22T09:28:53.227Z,10.43
2018-12-22T09:31:57.164Z,9.93
2018-12-22T09:35:01.291Z,10.17
2018-12-22T09:38:05.265Z,12.07
2018-12-22T09:41:10.109Z,12.33
2018-12-22T09:44:14.056Z,11.83
2018-12-22T09:47:18.360Z,13.87
2018-12-22T09:50:22.305Z,12.17
2018-12-22T09:53:26.473Z,11.20
2018-12-22T09:56:30.409Z,9.67
2018-12-22T09:59:34.577Z,12.07
2018-12-22T10:02:38.528Z,8.60
2018-12-22T10:05:43.345Z,10.07
2018-12-22T10:08:47.280Z,11.63
2018-12-22T10:11:51.369Z,12.93
2018-12-22T10:14:55.312Z,11.83
2018-12-22T10:17:59.392Z,11.00
2018-12-22T10:21:03.377Z,11.90
2018-12-22T10:24:07.432Z,12.50
2018-12-22T10:27:11.369Z,13.20
2018-12-22T10:30:15.455Z,13.23
2018-12-22T10:33:19.554Z,13.97
2018-12-22T10:36:23.676Z,10.83
2018-12-22T10:39:27.625Z,13.27
2018-12-22T10:42:31.666Z,13.83
2018-12-22T10:45:35.606Z,14.07
2018-12-22T10:48:39.737Z,15.03
2018-12-22T10:51:43.680Z,15.77
2018-12-22T10:54:47.697Z,16.90
2018-12-22T10:57:51.662Z,16.93
2018-12-22T11:00:55.812Z,15.97
2018-12-22T11:03:59.756Z,13.80
2018-12-22T11:07:03.828Z,13.87
2018-12-22T11:10:13.366Z,14.50
2018-12-22T11:13:17.496Z,15.17
2018-12-22T11:16:21.440Z,17.37
2018-12-22T11:19:25.495Z,15.70
2018-12-22T11:22:29.477Z,18.13
2018-12-22T11:25:33.536Z,14.90
2018-12-22T11:28:37.515Z,16.67
2018-12-22T11:31:41.856Z,15.50
2018-12-22T11:34:45.819Z,17.00
2018-12-22T11:37:49.976Z,15.33
2018-12-22T11:40:53.917Z,17.00
2018-12-22T11:43:57.956Z,19.57
2018-12-22T11:47:07.741Z,21.60
2018-12-22T11:50:18.432Z,18.90
2018-12-22T11:53:22.377Z,17.07
2018-12-22T11:56:26.456Z,16.37
2018-12-22T11:59:30.404Z,19.60
2018-12-22T12:02:34.646Z,16.87
2018-12-22T12:05:38.620Z,16.00
2018-12-22T12:08:42.720Z,11.63
2018-12-22T12:11:46.657Z,9.20
2018-12-22T12:14:50.764Z,9.27
2018-12-22T12:18:27.157Z,9.20
2018-12-22T12:21:31.233Z,8.50
2018-12-22T12:24:35.167Z,7.00
2018-12-22T12:27:39.256Z,9.17
2018-12-22T12:30:43.192Z,9.70
2018-12-22T12:33:47.221Z,6.87
2018-12-22T12:36:51.228Z,7.63
2018-12-22T12:39:55.377Z,6.93
2018-12-22T12:42:59.467Z,7.23
2018-12-22T12:46:03.557Z,7.47
2018-12-22T12:49:07.889Z,6.67
2018-12-22T12:52:12.093Z,11.53
2018-12-22T12:55:16.110Z,13.10
2018-12-22T12:58:20.208Z,14.53
2018-12-22T13:01:24.430Z,17.50
2018-12-22T13:04:28.778Z,15.50
2018-12-22T13:07:32.785Z,17.63
2018-12-22T13:10:37.146Z,17.67
2018-12-22T13:13:45.157Z,16.23
2018-12-22T13:16:49.200Z,18.37
2018-12-22T13:19:53.149Z,18.00
2018-12-22T13:22:57.209Z,17.63
2018-12-22T13:26:01.182Z,19.30
2018-12-22T13:29:05.274Z,19.63
2018-12-22T13:32:09.804Z,20.43
2018-12-22T13:35:14.555Z,21.43
2018-12-22T13:38:18.501Z,19.37
2018-12-22T13:41:22.568Z,20.27
2018-12-22T13:44:26.797Z,27.60
2018-12-22T13:47:30.938Z,21.03
2018-12-22T13:50:35.038Z,31.40
2018-12-22T13:53:39.201Z,23.50
2018-12-22T13:56:43.161Z,31.70
2018-12-22T13:59:47.237Z,10.40
2018-12-22T14:02:51.217Z,14.37
2018-12-22T14:05:55.477Z,5.87
2018-12-22T14:08:59.429Z,5.40
2018-12-22T14:12:03.497Z,6.03
2018-12-22T14:15:14.588Z,6.57
2018-12-22T14:18:26.254Z,5.57
2018-12-22T14:21:30.194Z,8.10
2018-12-22T14:24:34.405Z,6.83
2018-12-22T14:27:38.341Z,8.60
2018-12-22T14:30:42.424Z,7.40
2018-12-22T14:33:46.361Z,6.77
2018-12-22T14:36:50.477Z,6.53
2018-12-22T14:39:54.440Z,5.17
2018-12-22T14:42:58.480Z,7.07
2018-12-22T14:46:02.441Z,6.87
2018-12-22T14:49:06.505Z,6.87
2018-12-22T14:52:10.446Z,6.63
2018-12-22T14:55:14.535Z,5.67
2018-12-22T14:58:18.537Z,6.70
2018-12-22T15:01:22.665Z,6.63
2018-12-22T15:04:26.658Z,6.87
2018-12-22T15:07:30.824Z,6.83
2018-12-22T15:10:34.770Z,7.23
2018-12-22T15:13:38.820Z,8.87
2018-12-22T15:16:42.768Z,6.50
2018-12-22T15:19:46.797Z,5.40
2018-12-22T15:22:50.735Z,7.37
2018-12-22T15:25:54.762Z,5.83
2018-12-22T15:28:58.713Z,7.20
2018-12-22T15:32:02.793Z,7.77
2018-12-22T15:35:08.852Z,5.57
2018-12-22T15:38:12.969Z,5.27
2018-12-22T15:41:16.938Z,5.77
2018-12-22T15:44:21.002Z,5.97
2018-12-22T15:47:24.941Z,4.80
2018-12-22T15:50:37.524Z,6.53
2018-12-22T15:53:41.472Z,6.20
2018-12-22T15:56:45.550Z,5.43
2018-12-22T15:59:49.504Z,4.23
2018-12-22T16:02:53.641Z,7.93
2018-12-22T16:05:57.679Z,6.33
2018-12-22T16:09:01.808Z,5.53
2018-12-22T16:12:05.749Z,4.63
2018-12-22T16:15:14.141Z,3.43
2018-12-22T16:18:18.104Z,4.97
2018-12-22T16:21:22.160Z,3.30
2018-12-22T16:24:26.122Z,2.63
2018-12-22T16:27:30.194Z,3.83
2018-12-22T16:30:42.089Z,3.57
2018-12-22T16:33:46.315Z,3.63
2018-12-22T16:36:50.329Z,3.27
2018-12-22T16:39:54.447Z,3.60
2018-12-22T16:42:58.468Z,4.10
2018-12-22T16:46:02.677Z,3.33
2018-12-22T16:49:06.624Z,4.57
2018-12-22T16:52:10.696Z,3.60
2018-12-22T16:55:16.552Z,3.43
2018-12-22T16:58:25.776Z,3.80
2018-12-22T17:01:35.613Z,5.90
2018-12-22T17:04:39.650Z,5.63
2018-12-22T17:07:43.700Z,6.77
2018-12-22T17:10:48.901Z,6.10
2018-12-22T17:13:52.840Z,7.47
2018-12-22T17:16:56.937Z,7.63
2018-12-22T17:20:00.873Z,6.67
2018-12-22T17:23:26.564Z,7.67
2018-12-22T17:26:32.223Z,8.13
2018-12-22T17:29:36.333Z,9.67
2018-12-22T17:32:40.293Z,7.93
2018-12-22T17:35:44.380Z,6.43
2018-12-22T17:38:48.320Z,9.43
2018-12-22T17:41:52.432Z,10.63
2018-12-22T17:44:57.088Z,7.67
2018-12-22T17:48:01.133Z,9.97
2018-12-22T17:51:05.085Z,10.43
2018-12-22T17:54:09.161Z,9.27
2018-12-22T17:57:13.112Z,13.00
2018-12-22T18:00:17.281Z,17.63
2018-12-22T18:03:27.437Z,12.80
2018-12-22T18:06:29.453Z,11.73
2018-12-22T18:09:33.391Z,13.23
2018-12-22T18:12:37.408Z,11.17
2018-12-22T18:15:41.371Z,13.93
2018-12-22T18:18:45.465Z,13.00
2018-12-22T18:21:49.413Z,11.30
2018-12-22T18:24:53.498Z,11.20
2018-12-22T18:27:57.437Z,6.00
2018-12-22T18:31:01.449Z,4.13
2018-12-22T18:34:05.393Z,4.43
2018-12-22T18:37:09.441Z,5.10
2018-12-22T18:40:20.176Z,4.07
2018-12-22T18:43:24.235Z,4.90
2018-12-22T18:46:28.168Z,5.47
2018-12-22T18:49:32.357Z,6.77
2018-12-22T18:52:36.296Z,6.80
2018-12-22T18:55:40.386Z,5.90
2018-12-22T18:58:44.337Z,4.63
2018-12-22T19:01:48.413Z,6.73
2018-12-22T19:04:52.347Z,4.33
2018-12-22T19:07:56.537Z,7.07
2018-12-22T19:11:00.545Z,5.60
2018-12-22T19:14:04.565Z,6.00
2018-12-22T19:17:08.500Z,4.03
2018-12-22T19:20:17.942Z,5.77
2018-12-22T19:23:21.964Z,4.23
2018-12-22T19:26:26.149Z,5.23
2018-12-22T19:29:30.081Z,8.70
2018-12-22T19:32:34.176Z,6.80
2018-12-22T19:35:38.113Z,8.77
2018-12-22T19:38:42.204Z,7.50
2018-12-22T19:41:47.427Z,7.97
2018-12-22T19:44:51.444Z,6.97
2018-12-22T19:47:55.373Z,5.47
2018-12-22T19:50:59.485Z,4.33
2018-12-22T19:54:03.418Z,4.67
2018-12-22T19:57:07.517Z,5.07
2018-12-22T20:00:11.477Z,4.47
2018-12-22T20:03:15.515Z,5.20
2018-12-22T20:06:19.470Z,3.23
2018-12-22T20:09:23.564Z,3.03
2018-12-22T20:12:27.496Z,4.03
2018-12-22T20:15:31.536Z,6.33
2018-12-22T20:18:35.472Z,6.10
2018-12-22T20:21:39.517Z,6.43
2018-12-22T20:24:43.461Z,5.73
2018-12-22T20:27:47.471Z,7.23
2018-12-22T20:30:51.431Z,12.53
2018-12-22T20:33:55.470Z,26.60
2018-12-22T20:36:59.416Z,20.40
2018-12-22T20:40:04.006Z,9.73
2018-12-22T20:43:07.947Z,8.00
2018-12-22T20:46:12.229Z,17.30
2018-12-22T20:49:16.264Z,20.47
2018-12-22T20:52:20.468Z,11.23
2018-12-22T20:55:24.416Z,81.73
2018-12-22T20:58:28.500Z,38.83
2018-12-22T21:01:32.445Z,26.73
2018-12-22T21:04:36.516Z,13.30
2018-12-22T21:07:40.457Z,12.47
2018-12-22T21:10:45.352Z,12.97
2018-12-22T21:13:49.292Z,11.27
2018-12-22T21:16:53.397Z,9.33
2018-12-22T21:19:57.333Z,10.20
2018-12-22T21:23:01.435Z,12.43
2018-12-22T21:26:05.374Z,11.60
2018-12-22T21:29:09.465Z,36.43
2018-12-22T21:32:13.432Z,375.93
2018-12-22T21:35:17.579Z,47.97
2018-12-22T21:38:22.113Z,387.27
2018-12-22T21:41:26.233Z,390.73
2018-12-22T21:44:29.925Z,223.43
2018-12-22T21:47:34.054Z,176.27
2018-12-22T21:50:38.004Z,225.13
2018-12-22T21:53:42.069Z,85.93
2018-12-22T21:56:46.020Z,209.63
2018-12-22T21:59:50.099Z,149.77
2018-12-22T22:02:54.052Z,120.57
2018-12-22T22:05:58.132Z,132.50
2018-12-22T22:09:02.080Z,262.53
2018-12-22T22:12:06.268Z,63.93
2018-12-22T22:15:10.209Z,89.97
2018-12-22T22:18:14.241Z,297.00
2018-12-22T22:21:18.212Z,48.73
2018-12-22T22:24:22.308Z,27.87
2018-12-22T22:27:26.261Z,89.67
2018-12-22T22:30:30.384Z,32.37
2018-12-22T22:33:34.321Z,42.27
2018-12-22T22:36:38.467Z,95.13
2018-12-22T22:39:42.408Z,19.80
2018-12-22T22:42:46.500Z,32.33
2018-12-22T22:45:50.441Z,27.67
2018-12-22T22:48:54.452Z,44.37
2018-12-22T22:51:58.408Z,19.67
2018-12-22T22:55:02.425Z,23.37
2018-12-22T22:58:06.373Z,21.13
2018-12-22T23:01:10.572Z,22.60
2018-12-22T23:04:14.520Z,22.37
2018-12-22T23:07:18.605Z,26.87
2018-12-22T23:10:22.565Z,23.83
2018-12-22T23:13:26.583Z,26.23
2018-12-22T23:16:30.517Z,16.70
2018-12-22T23:19:35.121Z,25.63
2018-12-22T23:22:39.197Z,20.37
2018-12-22T23:25:43.292Z,15.63
2018-12-22T23:28:47.245Z,18.83
2018-12-22T23:31:51.328Z,20.93
2018-12-22T23:35:02.788Z,20.20
2018-12-22T23:38:01.503Z,20.43
2018-12-22T23:41:05.441Z,13.13
2018-12-22T23:44:09.525Z,20.67
2018-12-22T23:47:13.492Z,19.60
2018-12-22T23:50:17.549Z,18.53
2018-12-22T23:53:21.489Z,16.63
2018-12-22T23:56:25.577Z,18.10
2018-12-22T23:59:29.521Z,18.00
